Terminal Aerodrome Forecast
Issued by NWS Sterling, VA

Home | Current Version | Previous Version | Text Only | Print | Product List | Glossary On
Versions: 1 2 3 4 5 6 7 8 9 10 11 12 13 14 15 16 17 18 19 20 21 22 23 24 25
029
FTUS41 KLWX 261736
TAFBWI
TAF
KBWI 261736Z 2618/2724 29007KT P6SM SCT060 BKN150
     FM262300 19004KT P6SM SCT060 BKN140
     FM270800 35004KT P6SM BKN050
     FM272200 05004KT P6SM SCT050 BKN060=

USA.gov is the U.S. government's official web portal to all federal, state and local government web resources and services.